Time;durP1;ratioP1;P1;durP2;ratioP2;P2;SDS_P1;SDS_P2;PMS_P1;PMS_P2;Temp;Humidity;BMP_temperature;BMP_pressure;BME280_temperature;BME280_humidity;BME280_pressure;Samples;Min_cycle;Max_cycle;Signal;HPM_P1;HPM_P2
2023/03/13 00:01:13;;;;;;;;;;;10.50;99.90;;;;;;5059539;28;19908;-86
2023/03/13 00:03:39;;;;;;;;;;;10.50;99.90;;;;;;5075730;28;19912;-86
2023/03/13 00:06:05;;;;;;;;;;;10.50;99.90;;;;;;5077116;28;19927;-85
2023/03/13 00:08:30;;;;;;;;;;;10.40;99.90;;;;;;5075535;28;19904;-85
2023/03/13 00:10:56;;;;;;;;;;;10.50;99.90;;;;;;5077005;28;19916;-85
2023/03/13 00:13:22;;;;;;;;;;;10.40;99.90;;;;;;5075386;28;19974;-86
2023/03/13 00:15:47;;;;;;;;;;;10.40;99.90;;;;;;5075626;28;19905;-85
2023/03/13 00:18:13;;;;;;;;;;;10.40;99.90;;;;;;5058768;28;19908;-86
2023/03/13 00:20:38;;;;;;;;;;;10.30;99.90;;;;;;5058769;28;20014;-85
2023/03/13 00:23:04;;;;;;;;;;;10.30;99.90;;;;;;5075236;28;20269;-85
2023/03/13 00:25:30;;;;;;;;;;;10.30;99.90;;;;;;5075351;28;19951;-85
2023/03/13 00:27:56;;;;;;;;;;;10.30;99.90;;;;;;5075665;28;19915;-86
2023/03/13 00:30:21;;;;;;;;;;;10.30;99.90;;;;;;5076807;28;19910;-86
2023/03/13 00:32:47;;;;;;;;;;;10.30;99.90;;;;;;5075210;28;20347;-85
2023/03/13 00:35:13;;;;;;;;;;;10.30;99.90;;;;;;5074150;28;20369;-86
2023/03/13 00:37:39;;;;;;;;;;;10.20;99.90;;;;;;5075173;28;19915;-86
2023/03/13 00:40:05;;;;;;;;;;;10.20;99.90;;;;;;5075318;28;20349;-85
2023/03/13 00:42:31;;;;;;;;;;;10.20;99.90;;;;;;5075004;28;19908;-85
2023/03/13 00:44:56;;;;;;;;;;;10.20;99.90;;;;;;5058320;28;19908;-86
2023/03/13 00:47:22;;;;;;;;;;;10.20;99.90;;;;;;5076284;28;19904;-85
2023/03/13 00:49:47;;;;;;;;;;;10.20;99.90;;;;;;5086264;28;19916;-91
2023/03/13 00:52:13;;;;;;;;;;;10.20;99.90;;;;;;5074869;28;19909;-92
2023/03/13 00:54:38;;;;;;;;;;;10.10;99.90;;;;;;5073903;28;19920;-91
2023/03/13 00:57:04;;;;;;;;;;;10.20;99.90;;;;;;5078418;28;19908;-92
2023/03/13 00:59:29;;;;;;;;;;;10.20;99.90;;;;;;5080046;28;19914;-93
2023/03/13 01:01:55;;;;;;;;;;;10.10;99.90;;;;;;5060954;28;20302;-93
2023/03/13 01:04:20;;;;;;;;;;;10.10;99.90;;;;;;5060135;28;19976;-92
2023/03/13 01:06:46;;;;;;;;;;;10.10;99.90;;;;;;5070281;28;19908;-91
2023/03/13 01:09:13;;;;;;;;;;;10.10;99.90;;;;;;5092414;28;19955;-92
2023/03/13 01:11:40;;;;;;;;;;;10.00;99.90;;;;;;5077838;28;19909;-92
2023/03/13 01:14:07;;;;;;;;;;;10.00;99.90;;;;;;5076599;28;19920;-91
2023/03/13 01:16:33;;;;;;;;;;;10.00;99.90;;;;;;5075877;28;19912;-93
2023/03/13 01:19:00;;;;;;;;;;;10.00;99.90;;;;;;5076884;28;19908;-93
2023/03/13 01:21:26;;;;;;;;;;;10.10;99.90;;;;;;5075827;28;20014;-93
2023/03/13 01:23:52;;;;;;;;;;;10.10;99.90;;;;;;5057671;28;19916;-86
2023/03/13 01:26:19;;;;;;;;;;;10.10;99.90;;;;;;5057534;28;19916;-86
2023/03/13 01:28:44;;;;;;;;;;;10.00;99.90;;;;;;5075337;28;19908;-86
2023/03/13 01:31:14;;;;;;;;;;;10.00;99.90;;;;;;5057499;28;19910;-85
2023/03/13 01:33:40;;;;;;;;;;;10.00;99.90;;;;;;5074169;28;20345;-86
2023/03/13 01:36:06;;;;;;;;;;;10.10;99.90;;;;;;5067199;28;19942;-93
2023/03/13 01:38:32;;;;;;;;;;;10.00;99.90;;;;;;5078699;28;19909;-85
2023/03/13 01:40:57;;;;;;;;;;;10.10;99.90;;;;;;5073955;28;20349;-85
2023/03/13 01:43:25;;;;;;;;;;;10.10;99.90;;;;;;5052874;28;20425;-85
2023/03/13 01:46:23;;;;;;;;;;;10.10;99.90;;;;;;5064628;28;20350;-85
2023/03/13 01:48:55;;;;;;;;;;;10.10;99.90;;;;;;5032772;28;20007;-85
2023/03/13 01:51:30;;;;;;;;;;;10.10;99.90;;;;;;5073557;28;20380;-85
2023/03/13 01:54:17;;;;;;;;;;;10.10;99.90;;;;;;5071635;28;20465;-85
2023/03/13 01:57:03;;;;;;;;;;;10.10;99.90;;;;;;5074597;28;19905;-91
2023/03/13 01:59:40;;;;;;;;;;;10.10;99.90;;;;;;5075200;28;19928;-92
2023/03/13 02:02:06;;;;;;;;;;;10.10;99.90;;;;;;5067876;28;20349;-91
2023/03/13 02:04:37;;;;;;;;;;;10.10;99.90;;;;;;5086299;28;19904;-91
2023/03/13 02:07:06;;;;;;;;;;;10.20;99.90;;;;;;5088001;28;19963;-90
2023/03/13 02:09:32;;;;;;;;;;;10.20;99.90;;;;;;5087756;28;20440;-91
2023/03/13 02:12:09;;;;;;;;;;;10.30;99.90;;;;;;5084515;28;19975;-86
2023/03/13 02:14:37;;;;;;;;;;;10.30;99.90;;;;;;5073413;28;20333;-85
2023/03/13 02:17:03;;;;;;;;;;;10.30;99.90;;;;;;5073532;28;19904;-85
2023/03/13 02:22:56;;;;;;;;;;;10.40;99.90;;;;;;5074277;28;19919;-85
2023/03/13 02:25:22;;;;;;;;;;;10.40;99.90;;;;;;5073214;28;20237;-86
2023/03/13 02:27:49;;;;;;;;;;;10.40;99.90;;;;;;5073028;28;19904;-85
2023/03/13 02:30:15;;;;;;;;;;;10.40;99.90;;;;;;5073232;28;19904;-86
2023/03/13 02:32:41;;;;;;;;;;;10.50;99.90;;;;;;5074376;28;19911;-87
2023/03/13 02:35:08;;;;;;;;;;;10.60;99.90;;;;;;5073429;28;19927;-87
2023/03/13 02:37:34;;;;;;;;;;;10.60;99.90;;;;;;5073191;28;19904;-87
2023/03/13 02:40:04;;;;;;;;;;;10.60;99.90;;;;;;5073070;28;19904;-87
2023/03/13 02:42:30;;;;;;;;;;;10.60;99.90;;;;;;5072699;28;19912;-87
2023/03/13 02:44:55;;;;;;;;;;;10.70;99.90;;;;;;5072930;28;19940;-87
2023/03/13 02:47:22;;;;;;;;;;;10.70;99.90;;;;;;5074601;28;19908;-95
2023/03/13 02:49:47;;;;;;;;;;;10.70;99.90;;;;;;5074672;28;19905;-94
2023/03/13 02:52:16;;;;;;;;;;;10.70;99.90;;;;;;5058184;28;19912;-94
2023/03/13 02:54:43;;;;;;;;;;;10.80;99.90;;;;;;5074267;28;19947;-86
2023/03/13 02:57:09;;;;;;;;;;;10.80;99.90;;;;;;5071983;28;19957;-85
2023/03/13 02:59:34;;;;;;;;;;;10.80;99.90;;;;;;5055254;28;19912;-86
2023/03/13 03:02:00;;;;;;;;;;;10.80;99.90;;;;;;5072955;28;20366;-85
2023/03/13 03:04:25;;;;;;;;;;;10.90;99.90;;;;;;5056311;28;19924;-86
2023/03/13 03:06:52;;;;;;;;;;;10.90;99.90;;;;;;5072915;28;19911;-86
2023/03/13 03:09:18;;;;;;;;;;;11.00;99.90;;;;;;5074125;28;19911;-86
2023/03/13 03:11:43;;;;;;;;;;;11.00;99.90;;;;;;5056124;28;19999;-86
2023/03/13 03:14:10;;;;;;;;;;;11.00;99.90;;;;;;5073706;28;19952;-86
2023/03/13 03:16:36;;;;;;;;;;;11.10;99.90;;;;;;5056244;28;20373;-86
2023/03/13 03:19:01;;;;;;;;;;;11.10;99.90;;;;;;5056676;28;19909;-93
2023/03/13 03:21:27;;;;;;;;;;;11.10;99.90;;;;;;5060048;28;20003;-94
2023/03/13 03:23:53;;;;;;;;;;;11.10;99.90;;;;;;5058864;28;19923;-93
2023/03/13 03:26:18;;;;;;;;;;;11.20;99.90;;;;;;5075984;28;19991;-93
2023/03/13 03:28:44;;;;;;;;;;;11.30;99.90;;;;;;5059219;28;19932;-92
2023/03/13 03:31:11;;;;;;;;;;;11.20;99.90;;;;;;5075176;28;19927;-93
2023/03/13 03:33:36;;;;;;;;;;;11.30;99.90;;;;;;5075031;28;19911;-93
2023/03/13 03:36:03;;;;;;;;;;;11.30;99.90;;;;;;5058207;28;19913;-93
2023/03/13 03:38:29;;;;;;;;;;;11.40;99.90;;;;;;5074770;28;19912;-93
2023/03/13 03:40:54;;;;;;;;;;;11.40;99.90;;;;;;5074481;28;19905;-94
2023/03/13 03:43:20;;;;;;;;;;;11.50;99.90;;;;;;5057031;28;19913;-94
2023/03/13 03:45:46;;;;;;;;;;;11.50;99.90;;;;;;5058301;28;20324;-93
2023/03/13 03:48:11;;;;;;;;;;;11.50;99.90;;;;;;5056018;28;19908;-87
2023/03/13 03:50:37;;;;;;;;;;;11.50;99.90;;;;;;5073569;28;20422;-87
2023/03/13 03:53:02;;;;;;;;;;;11.50;99.90;;;;;;5056713;28;19908;-93
2023/03/13 03:55:28;;;;;;;;;;;11.60;99.90;;;;;;5057063;28;19908;-95
2023/03/13 03:57:53;;;;;;;;;;;11.60;99.90;;;;;;5074942;28;19935;-95
2023/03/13 04:00:19;;;;;;;;;;;11.60;99.90;;;;;;5058026;28;19919;-94
2023/03/13 04:02:45;;;;;;;;;;;11.70;99.90;;;;;;5074582;28;20290;-94
2023/03/13 04:05:11;;;;;;;;;;;11.70;99.90;;;;;;5057466;28;19915;-94
2023/03/13 04:07:36;;;;;;;;;;;11.70;99.90;;;;;;5074491;28;19904;-94
2023/03/13 04:10:02;;;;;;;;;;;11.80;99.90;;;;;;5059111;28;19909;-93
2023/03/13 04:12:28;;;;;;;;;;;11.80;99.90;;;;;;5059982;28;19912;-92
2023/03/13 04:14:53;;;;;;;;;;;11.80;99.90;;;;;;5078055;28;20284;-92
2023/03/13 04:17:19;;;;;;;;;;;11.80;99.90;;;;;;5076942;28;20328;-92
2023/03/13 04:19:44;;;;;;;;;;;11.80;99.90;;;;;;5060199;28;19909;-92
2023/03/13 04:22:10;;;;;;;;;;;11.80;99.90;;;;;;5076514;28;19917;-93
2023/03/13 04:24:35;;;;;;;;;;;11.90;99.90;;;;;;5076742;28;19951;-92
2023/03/13 04:27:02;;;;;;;;;;;11.90;99.90;;;;;;5059132;28;20361;-86
2023/03/13 04:29:28;;;;;;;;;;;11.90;99.90;;;;;;5058859;28;19909;-86
2023/03/13 04:31:54;;;;;;;;;;;11.90;99.90;;;;;;5075620;28;19912;-86
2023/03/13 04:34:19;;;;;;;;;;;12.00;99.90;;;;;;5075926;28;19977;-86
2023/03/13 04:36:45;;;;;;;;;;;12.00;99.90;;;;;;5059826;28;19908;-86
2023/03/13 04:39:10;;;;;;;;;;;12.00;99.90;;;;;;5059073;28;19909;-92
2023/03/13 04:41:36;;;;;;;;;;;12.00;99.90;;;;;;5059267;28;19908;-93
2023/03/13 04:44:01;;;;;;;;;;;12.00;99.90;;;;;;5060900;28;20000;-94
2023/03/13 04:46:27;;;;;;;;;;;12.10;99.90;;;;;;5060996;28;19908;-95
2023/03/13 04:48:52;;;;;;;;;;;12.10;99.90;;;;;;5077963;28;19905;-95
2023/03/13 04:51:18;;;;;;;;;;;12.10;99.90;;;;;;5060470;28;20380;-94
2023/03/13 04:53:44;;;;;;;;;;;12.10;99.90;;;;;;5060248;28;19909;-94
2023/03/13 04:56:10;;;;;;;;;;;12.20;99.90;;;;;;5076840;28;19911;-94
2023/03/13 04:58:36;;;;;;;;;;;12.20;99.90;;;;;;5079668;28;19927;-92
2023/03/13 05:01:04;;;;;;;;;;;12.20;99.90;;;;;;5077668;28;19904;-92
2023/03/13 05:03:29;;;;;;;;;;;12.20;99.90;;;;;;5059366;28;19916;-91
2023/03/13 05:05:55;;;;;;;;;;;12.30;99.90;;;;;;5076074;28;19904;-92
2023/03/13 05:08:20;;;;;;;;;;;12.30;99.90;;;;;;5059397;28;19914;-92
2023/03/13 05:10:46;;;;;;;;;;;12.30;99.90;;;;;;5075758;28;20333;-92
2023/03/13 05:13:12;;;;;;;;;;;12.30;99.90;;;;;;5058854;28;19916;-92
2023/03/13 05:15:37;;;;;;;;;;;12.30;99.90;;;;;;5075785;28;19915;-88
2023/03/13 05:18:03;;;;;;;;;;;12.40;99.90;;;;;;5058042;28;20315;-87
2023/03/13 05:20:28;;;;;;;;;;;12.40;99.90;;;;;;5074372;28;19909;-87
2023/03/13 05:22:54;;;;;;;;;;;12.40;99.90;;;;;;5074406;28;19916;-87
2023/03/13 05:25:19;;;;;;;;;;;12.40;99.90;;;;;;5074890;28;19950;-87
2023/03/13 05:27:45;;;;;;;;;;;12.40;99.90;;;;;;5075577;28;19953;-87
2023/03/13 05:30:11;;;;;;;;;;;12.40;99.90;;;;;;5074119;28;19904;-87
2023/03/13 05:32:36;;;;;;;;;;;12.50;99.90;;;;;;5058073;28;20357;-92
2023/03/13 05:35:02;;;;;;;;;;;12.50;99.90;;;;;;5058723;28;20270;-92
2023/03/13 05:37:27;;;;;;;;;;;12.50;99.90;;;;;;5058627;28;19908;-93
2023/03/13 05:39:53;;;;;;;;;;;12.50;99.90;;;;;;5058717;28;20391;-92
2023/03/13 05:42:18;;;;;;;;;;;12.50;99.90;;;;;;5075696;28;20419;-92
2023/03/13 05:45:09;;;;;;;;;;;12.50;99.90;;;;;;5058656;27;2073416;-91
2023/03/13 05:47:38;;;;;;;;;;;12.50;99.90;;;;;;5130754;28;19999;-91
2023/03/13 05:50:04;;;;;;;;;;;12.60;99.90;;;;;;5136952;28;19907;-90
2023/03/13 05:52:30;;;;;;;;;;;12.60;99.90;;;;;;5128055;28;19912;-91
2023/03/13 05:54:55;;;;;;;;;;;12.60;99.90;;;;;;5125942;28;19942;-90
2023/03/13 05:57:21;;;;;;;;;;;12.60;99.90;;;;;;5132735;28;19929;-89
2023/03/13 05:59:47;;;;;;;;;;;12.60;99.90;;;;;;5127913;28;19907;-91
2023/03/13 06:02:12;;;;;;;;;;;12.70;99.90;;;;;;5117820;28;19908;-92
2023/03/13 06:04:38;;;;;;;;;;;12.70;99.90;;;;;;5117930;28;20270;-89
2023/03/13 06:07:09;;;;;;;;;;;12.70;99.90;;;;;;5117082;28;19912;-90
2023/03/13 06:09:36;;;;;;;;;;;12.70;99.90;;;;;;5116289;28;19938;-89
2023/03/13 06:31:14;;;;;;;;;;;12.90;99.90;;;;;;5133616;28;19937;-89
2023/03/13 06:36:51;;;;;;;;;;;12.90;99.90;;;;;;5135082;28;19969;-90
2023/03/13 06:45:37;;;;;;;;;;;13.00;99.90;;;;;;5114538;28;19920;-88
2023/03/13 06:48:03;;;;;;;;;;;13.00;99.90;;;;;;5100907;28;19916;-90
2023/03/13 06:50:29;;;;;;;;;;;13.00;99.90;;;;;;5117274;28;19915;-90
2023/03/13 06:52:57;;;;;;;;;;;13.10;99.90;;;;;;5098988;28;20049;-90
2023/03/13 06:58:37;;;;;;;;;;;13.00;99.90;;;;;;5121472;28;20398;-91
2023/03/13 07:01:06;;;;;;;;;;;13.10;99.90;;;;;;5121102;28;19960;-90
2023/03/13 07:03:32;;;;;;;;;;;13.10;99.90;;;;;;5103144;28;19916;-89
2023/03/13 07:06:05;;;;;;;;;;;13.10;99.90;;;;;;5103395;28;19907;-90
2023/03/13 07:08:52;;;;;;;;;;;13.20;99.90;;;;;;5103591;28;19907;-90
2023/03/13 07:11:17;;;;;;;;;;;13.20;99.90;;;;;;5120809;28;19987;-89
2023/03/13 07:13:43;;;;;;;;;;;13.20;99.90;;;;;;5085120;28;20371;-90
2023/03/13 07:16:22;;;;;;;;;;;13.20;99.90;;;;;;5088043;28;19919;-92
2023/03/13 07:28:11;;;;;;;;;;;13.30;99.90;;;;;;5119280;28;19908;-90
2023/03/13 07:33:45;;;;;;;;;;;13.40;99.90;;;;;;5122344;28;19923;-90
2023/03/13 07:36:12;;;;;;;;;;;13.50;99.90;;;;;;5092856;28;19919;-90
2023/03/13 07:38:38;;;;;;;;;;;13.40;99.90;;;;;;5119714;28;19914;-90
2023/03/13 07:44:33;;;;;;;;;;;13.50;99.90;;;;;;5110948;28;19937;-91
2023/03/13 07:50:27;;;;;;;;;;;13.50;99.90;;;;;;5098895;28;19915;-92
2023/03/13 07:59:01;;;;;;;;;;;13.70;99.90;;;;;;5099072;28;19957;-90
2023/03/13 08:01:27;;;;;;;;;;;13.70;99.90;;;;;;5081381;28;19912;-88
2023/03/13 08:04:11;;;;;;;;;;;13.70;99.90;;;;;;5080357;28;19919;-90
2023/03/13 08:09:42;;;;;;;;;;;13.70;99.90;;;;;;5099010;28;19919;-89
2023/03/13 08:15:35;;;;;;;;;;;13.70;99.90;;;;;;5098185;28;19915;-89
2023/03/13 08:18:03;;;;;;;;;;;13.70;99.90;;;;;;5098745;28;19995;-91
2023/03/13 08:20:28;;;;;;;;;;;13.70;99.90;;;;;;5097983;28;19915;-88
2023/03/13 08:22:54;;;;;;;;;;;13.70;99.90;;;;;;5080827;28;19912;-88
2023/03/13 08:25:22;;;;;;;;;;;13.70;99.90;;;;;;5063330;28;19920;-89
2023/03/13 08:30:51;;;;;;;;;;;13.70;99.90;;;;;;5098073;28;20386;-85
2023/03/13 08:33:16;;;;;;;;;;;13.70;99.90;;;;;;5078850;28;19908;-89
2023/03/13 08:35:42;;;;;;;;;;;13.80;99.90;;;;;;5081156;28;20004;-89
2023/03/13 08:38:08;;;;;;;;;;;13.80;99.90;;;;;;5079949;28;20258;-88
2023/03/13 08:43:57;;;;;;;;;;;13.90;99.90;;;;;;5098198;28;19919;-89
2023/03/13 08:49:55;;;;;;;;;;;13.80;99.90;;;;;;5096766;28;20029;-87
2023/03/13 08:56:03;;;;;;;;;;;13.90;99.90;;;;;;5119042;28;19914;-90
2023/03/13 08:58:29;;;;;;;;;;;13.90;99.90;;;;;;5094967;28;19999;-91
2023/03/13 09:00:59;;;;;;;;;;;14.00;99.90;;;;;;5090512;28;19996;-90
2023/03/13 09:03:25;;;;;;;;;;;14.00;99.90;;;;;;5090653;28;19969;-92
2023/03/13 09:08:56;;;;;;;;;;;14.10;99.90;;;;;;5127287;28;19918;-94
2023/03/13 09:11:22;;;;;;;;;;;14.10;99.90;;;;;;5095848;28;19909;-92
2023/03/13 09:13:49;;;;;;;;;;;14.20;99.90;;;;;;5113286;28;19903;-94
2023/03/13 09:16:21;;;;;;;;;;;14.20;99.90;;;;;;5093083;28;19936;-91
2023/03/13 09:18:47;;;;;;;;;;;14.20;99.90;;;;;;5088469;28;19911;-92
2023/03/13 09:21:14;;;;;;;;;;;14.20;99.90;;;;;;5085047;28;20347;-93
2023/03/13 09:23:40;;;;;;;;;;;14.30;99.90;;;;;;5086261;28;19919;-92
2023/03/13 09:26:11;;;;;;;;;;;14.30;99.90;;;;;;5082057;28;19947;-91
2023/03/13 09:28:37;;;;;;;;;;;14.30;99.90;;;;;;5097611;28;19908;-89
2023/03/13 09:31:19;;;;;;;;;;;14.30;99.90;;;;;;5063056;28;19918;-89
2023/03/13 09:33:50;;;;;;;;;;;14.30;99.90;;;;;;5082975;28;19907;-91
2023/03/13 09:36:16;;;;;;;;;;;14.40;99.90;;;;;;5090512;28;19908;-91
2023/03/13 09:38:44;;;;;;;;;;;14.40;99.90;;;;;;5114719;28;20274;-91
2023/03/13 09:41:16;;;;;;;;;;;14.40;99.90;;;;;;5087493;28;19954;-92
2023/03/13 09:43:41;;;;;;;;;;;14.50;99.90;;;;;;5079602;28;19982;-94
2023/03/13 09:46:30;;;;;;;;;;;14.60;99.90;;;;;;5091615;28;19911;-92
2023/03/13 09:48:59;;;;;;;;;;;14.60;99.90;;;;;;5090529;28;19944;-92
2023/03/13 09:51:29;;;;;;;;;;;14.60;99.90;;;;;;5100035;28;19971;-92
2023/03/13 09:54:04;;;;;;;;;;;14.60;99.90;;;;;;5080361;28;19930;-88
2023/03/13 09:56:37;;;;;;;;;;;14.60;99.90;;;;;;5097376;28;20347;-91
2023/03/13 09:59:17;;;;;;;;;;;14.70;99.90;;;;;;5099363;28;19908;-88
2023/03/13 10:02:06;;;;;;;;;;;14.70;99.90;;;;;;5098681;28;20271;-89
2023/03/13 10:04:34;;;;;;;;;;;14.70;99.90;;;;;;5108990;28;20359;-91
2023/03/13 10:07:01;;;;;;;;;;;14.70;99.90;;;;;;5089052;28;19915;-91
2023/03/13 10:09:26;;;;;;;;;;;14.70;99.90;;;;;;5094331;28;19908;-89
2023/03/13 10:15:04;;;;;;;;;;;14.80;99.90;;;;;;5113424;28;20386;-89
2023/03/13 10:17:33;;;;;;;;;;;14.80;99.90;;;;;;5089460;28;19919;-92
2023/03/13 10:20:19;;;;;;;;;;;14.80;99.90;;;;;;5083102;28;20351;-89
2023/03/13 10:22:47;;;;;;;;;;;14.90;99.90;;;;;;5065204;28;20252;-93
2023/03/13 10:25:32;;;;;;;;;;;14.90;99.90;;;;;;5080082;28;19908;-91
2023/03/13 10:28:18;;;;;;;;;;;15.00;99.90;;;;;;5085631;28;19914;-89
2023/03/13 10:30:50;;;;;;;;;;;15.00;99.90;;;;;;5090708;28;19908;-91
2023/03/13 10:33:27;;;;;;;;;;;15.10;99.90;;;;;;5107814;28;20063;-95
2023/03/13 10:36:12;;;;;;;;;;;15.20;99.90;;;;;;5086425;28;19915;-91
2023/03/13 10:38:46;;;;;;;;;;;15.20;99.90;;;;;;5099820;28;19912;-91
2023/03/13 10:41:29;;;;;;;;;;;;;;;;;;;;;
2023/03/13 10:44:00;;;;;;;;;;;15.30;99.90;;;;;;5112143;28;19938;-92
2023/03/13 10:46:27;;;;;;;;;;;15.30;99.90;;;;;;5098801;28;19908;-88
2023/03/13 10:48:53;;;;;;;;;;;15.30;99.90;;;;;;5101569;28;19915;-94
2023/03/13 10:51:20;;;;;;;;;;;15.30;99.90;;;;;;5091882;28;20414;-93
2023/03/13 10:53:45;;;;;;;;;;;15.40;99.90;;;;;;5095592;28;20355;-90
2023/03/13 10:56:24;;;;;;;;;;;15.40;99.90;;;;;;5107711;28;19919;-93
2023/03/13 10:58:51;;;;;;;;;;;15.50;99.90;;;;;;5097876;28;20003;-93
2023/03/13 11:01:24;;;;;;;;;;;15.50;99.90;;;;;;5090409;28;20271;-89
2023/03/13 11:03:51;;;;;;;;;;;15.60;99.90;;;;;;5093752;28;19916;-90
2023/03/13 11:06:39;;;;;;;;;;;15.50;99.90;;;;;;5081055;28;19996;-92
2023/03/13 11:09:17;;;;;;;;;;;15.60;99.90;;;;;;5084137;28;20019;-91
2023/03/13 11:11:53;;;;;;;;;;;15.70;99.90;;;;;;5092481;28;20267;-92
2023/03/13 11:14:23;;;;;;;;;;;15.70;99.90;;;;;;5085664;28;19940;-93
2023/03/13 11:16:51;;;;;;;;;;;15.80;99.90;;;;;;5085777;28;19915;-94
2023/03/13 11:19:23;;;;;;;;;;;15.80;99.90;;;;;;5114582;28;19977;-92
2023/03/13 11:22:00;;;;;;;;;;;15.80;99.90;;;;;;5097489;28;20397;-93
2023/03/13 11:24:48;;;;;;;;;;;15.90;99.90;;;;;;5109685;28;19958;-92
2023/03/13 11:27:34;;;;;;;;;;;16.00;99.90;;;;;;5072037;28;19908;-91
2023/03/13 11:29:59;;;;;;;;;;;16.00;99.90;;;;;;5112803;28;19916;-88
2023/03/13 11:38:34;;;;;;;;;;;16.30;99.90;;;;;;5098534;28;19930;-95
2023/03/13 11:40:59;;;;;;;;;;;16.20;99.90;;;;;;5087038;28;19912;-91
2023/03/13 11:43:34;;;;;;;;;;;16.30;99.90;;;;;;5083968;28;19923;-91
2023/03/13 11:46:09;;;;;;;;;;;16.40;99.90;;;;;;5098816;28;19912;-91
2023/03/13 11:48:46;;;;;;;;;;;16.50;99.90;;;;;;5080634;28;19941;-90
2023/03/13 11:51:29;;;;;;;;;;;16.60;99.90;;;;;;5093958;28;19926;-93
2023/03/13 11:54:17;;;;;;;;;;;16.80;99.90;;;;;;5095507;28;19938;-92
2023/03/13 11:56:44;;;;;;;;;;;16.90;99.90;;;;;;5085564;28;20066;-91
2023/03/13 11:59:30;;;;;;;;;;;17.00;99.90;;;;;;5077396;28;19969;-89
2023/03/13 12:05:14;;;;;;;;;;;17.10;99.90;;;;;;5075685;28;19923;-91
2023/03/13 12:07:41;;;;;;;;;;;17.20;99.90;;;;;;5076162;28;19912;-90
2023/03/13 12:13:11;;;;;;;;;;;17.30;99.90;;;;;;5098140;28;19919;-91
2023/03/13 12:19:00;;;;;;;;;;;17.40;99.90;;;;;;5081988;28;19996;-89
2023/03/13 12:27:40;;;;;;;;;;;17.50;99.90;;;;;;5117972;28;19912;-90
2023/03/13 12:30:10;;;;;;;;;;;17.50;99.90;;;;;;5086966;28;19900;-88
2023/03/13 12:32:56;;;;;;;;;;;;;;;;;;;;;
2023/03/13 12:35:47;;;;;;;;;;;;;;;;;;;;;
2023/03/13 12:38:38;;;;;;;;;;;;;;;;;;;;;
2023/03/13 12:45:24;;;;;;;;;;;;;;;;;;;;;
2023/03/13 12:47:32;;;;;;;;;;;18.00;98.40;;;;;;5079679;28;20012;-94
2023/03/13 12:50:07;;;;;;;;;;;18.00;98.40;;;;;;5083497;28;19916;-96
2023/03/13 12:52:53;;;;;;;;;;;18.10;98.70;;;;;;5058885;28;20367;-96
2023/03/13 12:55:43;;;;;;;;;;;18.10;98.40;;;;;;5063676;28;20825;-95
2023/03/13 12:58:44;;;;;;;;;;;18.10;98.90;;;;;;5079568;28;19893;-96
2023/03/13 13:01:28;;;;;;;;;;;18.20;99.50;;;;;;5055580;28;19924;-96
2023/03/13 13:04:19;;;;;;;;;;;;;;;;;;;;;
2023/03/13 13:07:23;;;;;;;;;;;18.30;99.80;;;;;;5064815;28;20016;-96
2023/03/13 13:13:34;;;;;;;;;;;18.30;99.00;;;;;;4996856;28;19929;-93
2023/03/13 13:16:07;;;;;;;;;;;18.30;98.00;;;;;;5051611;28;19907;-92
2023/03/13 13:18:35;;;;;;;;;;;18.30;98.00;;;;;;5059901;28;20352;-93
2023/03/13 13:21:03;;;;;;;;;;;18.30;98.00;;;;;;5054177;28;19920;-94
2023/03/13 13:23:33;;;;;;;;;;;18.20;98.90;;;;;;5052826;28;19916;-91
2023/03/13 13:26:17;;;;;;;;;;;18.10;98.70;;;;;;5075490;28;19983;-95
2023/03/13 13:28:51;;;;;;;;;;;18.10;99.10;;;;;;5046897;28;19948;-95
2023/03/13 13:31:36;;;;;;;;;;;18.10;98.60;;;;;;5050080;28;20360;-92
2023/03/13 13:34:01;;;;;;;;;;;18.10;98.30;;;;;;5055925;28;19909;-91
2023/03/13 13:36:28;;;;;;;;;;;18.10;99.70;;;;;;5052020;28;19904;-92
2023/03/13 13:38:54;;;;;;;;;;;18.20;98.50;;;;;;5058386;28;19936;-93
2023/03/13 13:41:25;;;;;;;;;;;18.20;97.40;;;;;;5057631;28;19909;-92
2023/03/13 13:44:09;;;;;;;;;;;18.30;95.80;;;;;;5052312;28;20263;-93
2023/03/13 13:46:35;;;;;;;;;;;18.30;95.10;;;;;;5044496;28;19916;-93
2023/03/13 13:49:07;;;;;;;;;;;18.40;92.90;;;;;;5056971;28;19913;-94
2023/03/13 13:51:36;;;;;;;;;;;18.40;91.30;;;;;;5052778;28;19927;-94
2023/03/13 13:54:32;;;;;;;;;;;18.50;90.50;;;;;;5061156;28;21315;-92
2023/03/13 13:57:11;;;;;;;;;;;18.50;90.80;;;;;;5066615;28;19951;-91
2023/03/13 13:59:42;;;;;;;;;;;18.50;90.50;;;;;;5062813;28;19896;-93
2023/03/13 14:02:07;;;;;;;;;;;18.40;91.20;;;;;;5080115;28;19913;-93
2023/03/13 14:04:39;;;;;;;;;;;18.40;90.60;;;;;;5061172;28;20283;-92
2023/03/13 14:07:11;;;;;;;;;;;18.40;91.10;;;;;;5072332;28;19916;-93
2023/03/13 14:09:37;;;;;;;;;;;18.40;87.80;;;;;;5084885;28;19920;-94
2023/03/13 14:12:28;;;;;;;;;;;18.40;88.50;;;;;;5064744;28;19909;-92
2023/03/13 14:15:15;;;;;;;;;;;18.50;88.10;;;;;;5055369;28;19972;-91
2023/03/13 14:17:49;;;;;;;;;;;18.50;87.90;;;;;;5065049;28;19912;-95
2023/03/13 14:20:26;;;;;;;;;;;18.50;84.70;;;;;;5070550;28;19920;-95
2023/03/13 14:22:52;;;;;;;;;;;18.60;86.30;;;;;;5080067;28;20321;-94
2023/03/13 14:28:13;;;;;;;;;;;18.60;87.40;;;;;;5066146;28;19911;-91
2023/03/13 14:30:47;;;;;;;;;;;18.70;85.70;;;;;;5068816;28;19916;-95
2023/03/13 14:33:13;;;;;;;;;;;18.70;86.10;;;;;;5082435;28;19915;-90
2023/03/13 14:35:41;;;;;;;;;;;18.60;86.40;;;;;;5074490;28;19989;-91
2023/03/13 14:38:34;;;;;;;;;;;18.60;87.50;;;;;;5049473;28;20682;-90
2023/03/13 14:41:00;;;;;;;;;;;18.60;87.90;;;;;;5074954;28;20019;-92
2023/03/13 14:43:40;;;;;;;;;;;18.60;89.60;;;;;;5076161;28;20387;-91
2023/03/13 14:46:24;;;;;;;;;;;18.60;88.70;;;;;;5081777;28;19930;-93
2023/03/13 14:48:52;;;;;;;;;;;18.70;90.10;;;;;;5075429;28;20046;-94
2023/03/13 14:51:23;;;;;;;;;;;18.70;90.20;;;;;;5067696;28;19913;-93
2023/03/13 14:53:59;;;;;;;;;;;18.80;87.40;;;;;;5045296;28;20003;-93
2023/03/13 14:56:33;;;;;;;;;;;18.80;88.00;;;;;;5042437;28;19948;-93
2023/03/13 14:59:35;;;;;;;;;;;18.80;87.00;;;;;;5044355;28;19909;-93
2023/03/13 15:02:17;;;;;;;;;;;18.80;86.70;;;;;;5014716;28;20381;-91
2023/03/13 15:05:00;;;;;;;;;;;18.80;88.10;;;;;;5044920;28;20400;-91
2023/03/13 15:07:46;;;;;;;;;;;;;;;;;;;;;
2023/03/13 15:10:21;;;;;;;;;;;18.90;86.70;;;;;;5079396;28;19918;-90
2023/03/13 15:12:49;;;;;;;;;;;18.80;86.40;;;;;;5045104;28;19908;-93
2023/03/13 15:15:15;;;;;;;;;;;18.80;87.00;;;;;;5024414;28;19963;-92
2023/03/13 15:17:44;;;;;;;;;;;18.90;87.30;;;;;;5062527;28;19912;-92
2023/03/13 15:20:16;;;;;;;;;;;18.90;88.90;;;;;;5055863;28;19947;-93
2023/03/13 15:22:43;;;;;;;;;;;18.90;90.00;;;;;;5059780;28;20004;-92
2023/03/13 15:25:13;;;;;;;;;;;18.90;90.00;;;;;;5052483;28;19917;-94
2023/03/13 15:27:39;;;;;;;;;;;18.90;90.10;;;;;;5057106;28;19915;-92
2023/03/13 15:30:05;;;;;;;;;;;18.90;90.60;;;;;;5061070;28;19908;-91
2023/03/13 15:32:38;;;;;;;;;;;18.90;90.60;;;;;;5061101;28;19913;-91
2023/03/13 15:35:28;;;;;;;;;;;18.80;90.80;;;;;;5078574;28;19916;-90
2023/03/13 15:41:01;;;;;;;;;;;18.80;91.00;;;;;;4998322;28;19954;-92
2023/03/13 15:43:27;;;;;;;;;;;18.80;91.10;;;;;;5044386;28;20442;-93
2023/03/13 15:45:52;;;;;;;;;;;18.70;91.10;;;;;;5044844;28;19939;-91
2023/03/13 15:48:27;;;;;;;;;;;18.70;91.00;;;;;;5066614;28;19909;-92
2023/03/13 15:50:54;;;;;;;;;;;18.70;91.30;;;;;;5098116;28;19916;-91
2023/03/13 15:53:30;;;;;;;;;;;18.70;91.20;;;;;;5081896;28;19951;-93
2023/03/13 15:55:57;;;;;;;;;;;18.50;90.10;;;;;;5081897;28;19919;-92
2023/03/13 15:58:23;;;;;;;;;;;18.50;91.00;;;;;;5077682;28;19908;-94
2023/03/13 16:00:49;;;;;;;;;;;18.50;91.60;;;;;;5080494;28;19924;-92
2023/03/13 16:03:21;;;;;;;;;;;18.50;91.20;;;;;;5079648;28;19988;-92
2023/03/13 16:05:49;;;;;;;;;;;18.40;90.90;;;;;;5069578;28;19909;-92
2023/03/13 16:08:38;;;;;;;;;;;18.40;90.60;;;;;;5065969;28;19909;-93
2023/03/13 16:11:03;;;;;;;;;;;18.30;90.80;;;;;;5069070;28;19940;-91
2023/03/13 16:13:30;;;;;;;;;;;18.30;90.80;;;;;;5065273;28;19959;-92
2023/03/13 16:16:01;;;;;;;;;;;18.20;91.00;;;;;;5064479;28;20352;-95
2023/03/13 16:18:29;;;;;;;;;;;18.20;91.60;;;;;;5064068;28;19919;-92
2023/03/13 16:21:02;;;;;;;;;;;18.20;91.30;;;;;;5062810;28;19909;-96
2023/03/13 16:23:30;;;;;;;;;;;18.10;91.20;;;;;;5051286;28;19929;-93
2023/03/13 16:26:01;;;;;;;;;;;18.20;91.70;;;;;;5064606;28;19908;-96
2023/03/13 16:28:26;;;;;;;;;;;18.20;91.50;;;;;;5063554;28;19913;-95
2023/03/13 16:31:08;;;;;;;;;;;18.10;91.70;;;;;;5064372;28;19976;-96
2023/03/13 16:33:34;;;;;;;;;;;18.20;91.90;;;;;;5050173;28;19920;-93
2023/03/13 16:36:12;;;;;;;;;;;18.10;91.70;;;;;;5068156;28;19896;-96
2023/03/13 16:38:47;;;;;;;;;;;;;;;;;;;;;
2023/03/13 16:41:17;;;;;;;;;;;18.10;92.20;;;;;;5084857;28;20300;-96
2023/03/13 16:43:48;;;;;;;;;;;18.00;92.40;;;;;;5067361;28;19915;-94
2023/03/13 16:46:37;;;;;;;;;;;18.00;92.10;;;;;;5050984;28;20350;-92